Rockford, Michigan
Current Conditions -  °F | °C
As of 2:30 PM on Friday 31 Oct 2014 (Local Time) from KGRR Reporting Station
Light Snow Light Snow  
Wind Chill: 25°   Ceiling: 1900
Heat Index: 36°   Visibility: 1.7mi
Dew Point: 33°   Wind: 21mph
Humidity: 89%   Direction: 10°N
Pressure: 30.04"   Gusts: NA
Location:  43.13°N, 85.56°W
Report Text: KGRR 311830Z 01018KT 1 3/4SM -SN BR FEW008 SCT013 OVC019 02/01 A3004 RMK AO2 PK WND 01031/1811 CIG 014 RWY 8R SNE1758B1759 P0000 T00220006
Loading
Personal Weather Stations






























Interactive Weather Map
Tropical Storm Tracking
New forecast layout! Learn more

10-Day Weather Forecast

Advertisements
Track Severe Weather on mobile